sensor_id;sensor_type;location;lat;lon;timestamp;P1;durP1;ratioP1;P2;durP2;ratioP2
71969;SDS011;59838;52.152;5.436;2023-04-20T00:02:07;2.42;;;0.47;;
71969;SDS011;59838;52.152;5.436;2023-04-20T00:04:34;1.27;;;0.55;;
71969;SDS011;59838;52.152;5.436;2023-04-20T00:07:01;2.60;;;0.30;;
71969;SDS011;59838;52.152;5.436;2023-04-20T00:09:28;3.20;;;0.70;;
71969;SDS011;59838;52.152;5.436;2023-04-20T00:11:54;2.50;;;0.57;;
71969;SDS011;59838;52.152;5.436;2023-04-20T00:14:21;3.90;;;0.60;;
71969;SDS011;59838;52.152;5.436;2023-04-20T00:16:47;5.38;;;0.50;;
71969;SDS011;59838;52.152;5.436;2023-04-20T00:19:14;2.73;;;0.70;;
71969;SDS011;59838;52.152;5.436;2023-04-20T00:21:41;5.75;;;1.42;;
71969;SDS011;59838;52.152;5.436;2023-04-20T00:24:08;1.70;;;1.10;;
71969;SDS011;59838;52.152;5.436;2023-04-20T00:26:34;5.55;;;0.93;;
71969;SDS011;59838;52.152;5.436;2023-04-20T00:29:01;5.93;;;0.75;;
71969;SDS011;59838;52.152;5.436;2023-04-20T00:31:27;2.63;;;0.80;;
71969;SDS011;59838;52.152;5.436;2023-04-20T00:33:54;4.40;;;0.77;;
71969;SDS011;59838;52.152;5.436;2023-04-20T00:36:20;2.05;;;1.17;;
71969;SDS011;59838;52.152;5.436;2023-04-20T00:38:47;1.90;;;0.80;;
71969;SDS011;59838;52.152;5.436;2023-04-20T00:41:13;5.30;;;0.80;;
71969;SDS011;59838;52.152;5.436;2023-04-20T00:43:52;3.67;;;0.77;;
71969;SDS011;59838;52.152;5.436;2023-04-20T00:46:20;1.63;;;0.63;;
71969;SDS011;59838;52.152;5.436;2023-04-20T00:48:48;2.13;;;1.00;;
71969;SDS011;59838;52.152;5.436;2023-04-20T00:51:16;6.05;;;1.45;;
71969;SDS011;59838;52.152;5.436;2023-04-20T00:53:43;2.55;;;0.95;;
71969;SDS011;59838;52.152;5.436;2023-04-20T00:56:10;1.93;;;0.77;;
71969;SDS011;59838;52.152;5.436;2023-04-20T00:58:38;3.95;;;1.40;;
71969;SDS011;59838;52.152;5.436;2023-04-20T01:01:07;2.53;;;1.40;;
71969;SDS011;59838;52.152;5.436;2023-04-20T01:03:34;2.22;;;1.08;;
71969;SDS011;59838;52.152;5.436;2023-04-20T01:06:01;3.88;;;1.45;;
71969;SDS011;59838;52.152;5.436;2023-04-20T01:08:28;2.37;;;1.20;;
71969;SDS011;59838;52.152;5.436;2023-04-20T01:10:54;3.65;;;0.90;;
71969;SDS011;59838;52.152;5.436;2023-04-20T01:13:21;2.05;;;0.63;;
71969;SDS011;59838;52.152;5.436;2023-04-20T01:15:49;4.03;;;0.75;;
71969;SDS011;59838;52.152;5.436;2023-04-20T01:18:16;6.25;;;0.98;;
71969;SDS011;59838;52.152;5.436;2023-04-20T01:20:45;1.80;;;0.60;;
71969;SDS011;59838;52.152;5.436;2023-04-20T01:23:15;4.47;;;0.85;;
71969;SDS011;59838;52.152;5.436;2023-04-20T01:25:41;2.38;;;0.82;;
71969;SDS011;59838;52.152;5.436;2023-04-20T01:28:07;1.13;;;0.57;;
71969;SDS011;59838;52.152;5.436;2023-04-20T01:30:35;4.43;;;0.90;;
71969;SDS011;59838;52.152;5.436;2023-04-20T01:33:02;2.00;;;0.80;;
71969;SDS011;59838;52.152;5.436;2023-04-20T01:35:29;3.53;;;0.70;;
71969;SDS011;59838;52.152;5.436;2023-04-20T01:37:55;2.28;;;0.70;;
71969;SDS011;59838;52.152;5.436;2023-04-20T01:40:22;4.15;;;0.75;;
71969;SDS011;59838;52.152;5.436;2023-04-20T01:42:48;2.25;;;1.10;;
71969;SDS011;59838;52.152;5.436;2023-04-20T01:45:15;3.90;;;0.93;;
71969;SDS011;59838;52.152;5.436;2023-04-20T01:47:41;2.22;;;0.95;;
71969;SDS011;59838;52.152;5.436;2023-04-20T01:50:08;3.47;;;1.05;;
71969;SDS011;59838;52.152;5.436;2023-04-20T01:52:34;1.90;;;0.88;;
71969;SDS011;59838;52.152;5.436;2023-04-20T01:55:01;2.70;;;1.23;;
71969;SDS011;59838;52.152;5.436;2023-04-20T01:57:27;4.20;;;0.97;;
71969;SDS011;59838;52.152;5.436;2023-04-20T01:59:54;4.75;;;0.82;;
71969;SDS011;59838;52.152;5.436;2023-04-20T02:02:20;2.85;;;1.55;;
71969;SDS011;59838;52.152;5.436;2023-04-20T02:04:49;1.98;;;1.17;;
71969;SDS011;59838;52.152;5.436;2023-04-20T02:07:16;3.30;;;1.10;;
71969;SDS011;59838;52.152;5.436;2023-04-20T02:09:42;4.03;;;1.63;;
71969;SDS011;59838;52.152;5.436;2023-04-20T02:12:08;2.65;;;1.13;;
71969;SDS011;59838;52.152;5.436;2023-04-20T02:14:35;3.55;;;0.80;;
71969;SDS011;59838;52.152;5.436;2023-04-20T02:17:01;3.53;;;1.30;;
71969;SDS011;59838;52.152;5.436;2023-04-20T02:19:28;1.50;;;0.82;;
71969;SDS011;59838;52.152;5.436;2023-04-20T02:21:55;1.90;;;1.10;;
71969;SDS011;59838;52.152;5.436;2023-04-20T02:24:21;4.00;;;0.80;;
71969;SDS011;59838;52.152;5.436;2023-04-20T02:26:48;3.40;;;0.95;;
71969;SDS011;59838;52.152;5.436;2023-04-20T02:29:14;1.90;;;0.88;;
71969;SDS011;59838;52.152;5.436;2023-04-20T02:31:42;2.88;;;0.70;;
71969;SDS011;59838;52.152;5.436;2023-04-20T02:34:08;2.43;;;0.80;;
71969;SDS011;59838;52.152;5.436;2023-04-20T02:36:35;3.70;;;1.25;;
71969;SDS011;59838;52.152;5.436;2023-04-20T02:39:02;3.45;;;1.20;;
71969;SDS011;59838;52.152;5.436;2023-04-20T02:41:29;3.28;;;0.95;;
71969;SDS011;59838;52.152;5.436;2023-04-20T02:43:56;4.05;;;0.90;;
71969;SDS011;59838;52.152;5.436;2023-04-20T02:46:22;2.50;;;0.90;;
71969;SDS011;59838;52.152;5.436;2023-04-20T02:48:49;1.60;;;0.82;;
71969;SDS011;59838;52.152;5.436;2023-04-20T02:51:15;2.15;;;0.77;;
71969;SDS011;59838;52.152;5.436;2023-04-20T02:53:42;3.45;;;1.00;;
71969;SDS011;59838;52.152;5.436;2023-04-20T02:56:09;2.33;;;1.02;;
71969;SDS011;59838;52.152;5.436;2023-04-20T02:58:36;3.00;;;1.07;;
71969;SDS011;59838;52.152;5.436;2023-04-20T03:01:03;2.75;;;1.25;;
71969;SDS011;59838;52.152;5.436;2023-04-20T03:03:29;2.67;;;1.45;;
71969;SDS011;59838;52.152;5.436;2023-04-20T03:05:57;2.08;;;1.00;;
71969;SDS011;59838;52.152;5.436;2023-04-20T03:08:23;5.50;;;0.95;;
71969;SDS011;59838;52.152;5.436;2023-04-20T03:10:50;2.87;;;1.23;;
71969;SDS011;59838;52.152;5.436;2023-04-20T03:13:17;4.97;;;1.58;;
71969;SDS011;59838;52.152;5.436;2023-04-20T03:15:44;2.20;;;1.08;;
71969;SDS011;59838;52.152;5.436;2023-04-20T03:18:10;2.90;;;0.85;;
71969;SDS011;59838;52.152;5.436;2023-04-20T03:20:37;5.60;;;1.40;;
71969;SDS011;59838;52.152;5.436;2023-04-20T03:23:03;3.33;;;0.80;;
71969;SDS011;59838;52.152;5.436;2023-04-20T03:25:30;2.88;;;0.77;;
71969;SDS011;59838;52.152;5.436;2023-04-20T03:27:57;1.67;;;0.80;;
71969;SDS011;59838;52.152;5.436;2023-04-20T03:30:24;2.55;;;1.05;;
71969;SDS011;59838;52.152;5.436;2023-04-20T03:32:51;2.47;;;1.00;;
71969;SDS011;59838;52.152;5.436;2023-04-20T03:35:17;2.50;;;1.20;;
71969;SDS011;59838;52.152;5.436;2023-04-20T03:37:46;2.20;;;1.10;;
71969;SDS011;59838;52.152;5.436;2023-04-20T03:40:12;4.53;;;1.10;;
71969;SDS011;59838;52.152;5.436;2023-04-20T03:42:39;5.78;;;1.20;;
71969;SDS011;59838;52.152;5.436;2023-04-20T03:45:06;3.53;;;1.08;;
71969;SDS011;59838;52.152;5.436;2023-04-20T03:47:33;3.13;;;0.70;;
71969;SDS011;59838;52.152;5.436;2023-04-20T03:49:59;2.88;;;0.75;;
71969;SDS011;59838;52.152;5.436;2023-04-20T03:52:26;3.53;;;0.80;;
71969;SDS011;59838;52.152;5.436;2023-04-20T03:54:53;2.42;;;0.60;;
71969;SDS011;59838;52.152;5.436;2023-04-20T03:57:19;1.77;;;0.80;;
71969;SDS011;59838;52.152;5.436;2023-04-20T03:59:46;9.90;;;1.00;;
71969;SDS011;59838;52.152;5.436;2023-04-20T04:02:12;2.17;;;0.70;;
71969;SDS011;59838;52.152;5.436;2023-04-20T04:04:39;2.92;;;0.85;;
71969;SDS011;59838;52.152;5.436;2023-04-20T04:07:06;3.05;;;0.80;;
71969;SDS011;59838;52.152;5.436;2023-04-20T04:09:33;4.82;;;0.95;;
71969;SDS011;59838;52.152;5.436;2023-04-20T04:11:59;3.23;;;0.80;;
71969;SDS011;59838;52.152;5.436;2023-04-20T04:14:27;6.07;;;1.25;;
71969;SDS011;59838;52.152;5.436;2023-04-20T04:16:55;3.25;;;0.85;;
71969;SDS011;59838;52.152;5.436;2023-04-20T04:19:21;3.72;;;0.85;;
71969;SDS011;59838;52.152;5.436;2023-04-20T04:21:48;3.60;;;1.30;;
71969;SDS011;59838;52.152;5.436;2023-04-20T04:24:15;11.70;;;1.53;;
71969;SDS011;59838;52.152;5.436;2023-04-20T04:26:42;2.00;;;0.90;;
71969;SDS011;59838;52.152;5.436;2023-04-20T04:29:08;3.65;;;0.95;;
71969;SDS011;59838;52.152;5.436;2023-04-20T04:31:35;3.10;;;0.80;;
71969;SDS011;59838;52.152;5.436;2023-04-20T04:34:02;2.70;;;1.13;;
71969;SDS011;59838;52.152;5.436;2023-04-20T04:36:28;2.33;;;0.90;;
71969;SDS011;59838;52.152;5.436;2023-04-20T04:38:55;5.45;;;1.00;;
71969;SDS011;59838;52.152;5.436;2023-04-20T04:41:21;2.95;;;1.10;;
71969;SDS011;59838;52.152;5.436;2023-04-20T04:43:48;2.70;;;0.70;;
71969;SDS011;59838;52.152;5.436;2023-04-20T04:46:15;1.73;;;0.80;;
71969;SDS011;59838;52.152;5.436;2023-04-20T04:48:41;3.63;;;0.63;;
71969;SDS011;59838;52.152;5.436;2023-04-20T04:51:08;1.77;;;0.60;;
71969;SDS011;59838;52.152;5.436;2023-04-20T04:53:35;2.42;;;0.60;;
71969;SDS011;59838;52.152;5.436;2023-04-20T04:56:02;2.65;;;0.40;;
71969;SDS011;59838;52.152;5.436;2023-04-20T04:58:29;7.03;;;0.65;;
71969;SDS011;59838;52.152;5.436;2023-04-20T05:00:56;5.73;;;0.90;;
71969;SDS011;59838;52.152;5.436;2023-04-20T05:03:22;2.17;;;1.52;;
71969;SDS011;59838;52.152;5.436;2023-04-20T05:05:49;4.70;;;0.80;;
71969;SDS011;59838;52.152;5.436;2023-04-20T05:08:15;3.85;;;0.70;;
71969;SDS011;59838;52.152;5.436;2023-04-20T05:10:42;3.63;;;0.57;;
71969;SDS011;59838;52.152;5.436;2023-04-20T05:13:08;4.27;;;0.80;;
71969;SDS011;59838;52.152;5.436;2023-04-20T05:15:35;4.32;;;1.00;;
71969;SDS011;59838;52.152;5.436;2023-04-20T05:18:01;4.90;;;0.85;;
71969;SDS011;59838;52.152;5.436;2023-04-20T05:20:28;5.00;;;0.93;;
71969;SDS011;59838;52.152;5.436;2023-04-20T05:22:54;1.98;;;0.68;;
71969;SDS011;59838;52.152;5.436;2023-04-20T05:25:21;2.10;;;0.50;;
71969;SDS011;59838;52.152;5.436;2023-04-20T05:27:47;2.33;;;0.80;;
71969;SDS011;59838;52.152;5.436;2023-04-20T05:30:14;1.88;;;0.40;;
71969;SDS011;59838;52.152;5.436;2023-04-20T05:32:47;2.20;;;0.70;;
71969;SDS011;59838;52.152;5.436;2023-04-20T05:35:17;4.45;;;0.80;;
71969;SDS011;59838;52.152;5.436;2023-04-20T05:37:43;1.83;;;0.60;;
71969;SDS011;59838;52.152;5.436;2023-04-20T05:40:10;4.75;;;0.68;;
71969;SDS011;59838;52.152;5.436;2023-04-20T05:42:37;1.73;;;0.85;;
71969;SDS011;59838;52.152;5.436;2023-04-20T05:45:03;12.88;;;1.00;;
71969;SDS011;59838;52.152;5.436;2023-04-20T05:47:30;3.45;;;1.05;;
71969;SDS011;59838;52.152;5.436;2023-04-20T05:49:57;4.43;;;0.80;;
71969;SDS011;59838;52.152;5.436;2023-04-20T05:52:24;2.58;;;0.88;;
71969;SDS011;59838;52.152;5.436;2023-04-20T05:54:51;5.75;;;1.00;;
71969;SDS011;59838;52.152;5.436;2023-04-20T05:57:17;4.93;;;1.00;;
71969;SDS011;59838;52.152;5.436;2023-04-20T05:59:44;3.33;;;0.75;;
71969;SDS011;59838;52.152;5.436;2023-04-20T06:02:10;3.07;;;0.83;;
71969;SDS011;59838;52.152;5.436;2023-04-20T06:04:37;4.25;;;0.65;;
71969;SDS011;59838;52.152;5.436;2023-04-20T06:07:04;2.03;;;0.70;;
71969;SDS011;59838;52.152;5.436;2023-04-20T06:09:30;1.83;;;0.57;;
71969;SDS011;59838;52.152;5.436;2023-04-20T06:11:56;4.50;;;0.90;;
71969;SDS011;59838;52.152;5.436;2023-04-20T06:14:23;6.10;;;0.67;;
71969;SDS011;59838;52.152;5.436;2023-04-20T06:16:50;2.85;;;0.70;;
71969;SDS011;59838;52.152;5.436;2023-04-20T06:19:16;1.65;;;0.70;;
71969;SDS011;59838;52.152;5.436;2023-04-20T06:21:43;3.28;;;1.17;;
71969;SDS011;59838;52.152;5.436;2023-04-20T06:24:09;1.63;;;0.50;;
71969;SDS011;59838;52.152;5.436;2023-04-20T06:26:36;2.80;;;0.67;;
71969;SDS011;59838;52.152;5.436;2023-04-20T06:29:02;4.20;;;0.90;;
71969;SDS011;59838;52.152;5.436;2023-04-20T06:31:28;3.55;;;0.90;;
71969;SDS011;59838;52.152;5.436;2023-04-20T06:33:55;2.63;;;0.90;;
71969;SDS011;59838;52.152;5.436;2023-04-20T06:36:23;4.03;;;0.70;;
71969;SDS011;59838;52.152;5.436;2023-04-20T06:38:49;2.77;;;0.40;;
71969;SDS011;59838;52.152;5.436;2023-04-20T06:41:16;2.95;;;0.95;;
71969;SDS011;59838;52.152;5.436;2023-04-20T06:43:43;2.10;;;0.70;;
71969;SDS011;59838;52.152;5.436;2023-04-20T06:46:10;6.80;;;2.35;;
71969;SDS011;59838;52.152;5.436;2023-04-20T06:48:37;3.35;;;1.40;;
71969;SDS011;59838;52.152;5.436;2023-04-20T06:51:03;1.70;;;0.97;;
71969;SDS011;59838;52.152;5.436;2023-04-20T06:53:30;5.32;;;1.55;;
71969;SDS011;59838;52.152;5.436;2023-04-20T06:55:56;2.20;;;0.77;;
71969;SDS011;59838;52.152;5.436;2023-04-20T06:58:23;3.25;;;0.88;;
71969;SDS011;59838;52.152;5.436;2023-04-20T07:00:49;2.45;;;1.05;;
71969;SDS011;59838;52.152;5.436;2023-04-20T07:03:16;3.20;;;0.80;;
71969;SDS011;59838;52.152;5.436;2023-04-20T07:05:44;2.45;;;0.70;;
71969;SDS011;59838;52.152;5.436;2023-04-20T07:08:11;2.03;;;0.82;;
71969;SDS011;59838;52.152;5.436;2023-04-20T07:10:37;2.22;;;0.80;;
71969;SDS011;59838;52.152;5.436;2023-04-20T07:13:04;2.08;;;0.80;;
71969;SDS011;59838;52.152;5.436;2023-04-20T07:15:30;2.00;;;1.20;;
71969;SDS011;59838;52.152;5.436;2023-04-20T07:17:57;3.15;;;0.98;;
71969;SDS011;59838;52.152;5.436;2023-04-20T07:20:23;2.42;;;0.93;;
71969;SDS011;59838;52.152;5.436;2023-04-20T07:22:50;4.53;;;1.00;;
71969;SDS011;59838;52.152;5.436;2023-04-20T07:25:17;3.40;;;1.15;;
71969;SDS011;59838;52.152;5.436;2023-04-20T07:27:43;4.27;;;0.90;;
71969;SDS011;59838;52.152;5.436;2023-04-20T07:30:10;3.03;;;0.75;;
71969;SDS011;59838;52.152;5.436;2023-04-20T07:32:38;5.60;;;0.93;;
71969;SDS011;59838;52.152;5.436;2023-04-20T07:35:06;3.33;;;1.13;;
71969;SDS011;59838;52.152;5.436;2023-04-20T07:37:33;3.20;;;1.33;;
71969;SDS011;59838;52.152;5.436;2023-04-20T07:40:00;2.83;;;1.10;;
71969;SDS011;59838;52.152;5.436;2023-04-20T07:42:27;4.22;;;1.25;;
71969;SDS011;59838;52.152;5.436;2023-04-20T07:44:55;4.03;;;1.10;;
71969;SDS011;59838;52.152;5.436;2023-04-20T07:47:21;5.45;;;0.93;;
71969;SDS011;59838;52.152;5.436;2023-04-20T07:49:48;5.25;;;1.10;;
71969;SDS011;59838;52.152;5.436;2023-04-20T07:52:14;5.00;;;0.87;;
71969;SDS011;59838;52.152;5.436;2023-04-20T07:54:45;4.88;;;1.17;;
71969;SDS011;59838;52.152;5.436;2023-04-20T07:57:12;2.80;;;0.98;;
71969;SDS011;59838;52.152;5.436;2023-04-20T07:59:38;1.23;;;0.70;;
71969;SDS011;59838;52.152;5.436;2023-04-20T08:02:06;4.57;;;1.10;;
71969;SDS011;59838;52.152;5.436;2023-04-20T08:04:34;5.07;;;1.10;;
71969;SDS011;59838;52.152;5.436;2023-04-20T08:07:02;3.13;;;0.90;;
71969;SDS011;59838;52.152;5.436;2023-04-20T08:09:28;3.10;;;1.05;;
71969;SDS011;59838;52.152;5.436;2023-04-20T08:11:55;2.10;;;1.10;;
71969;SDS011;59838;52.152;5.436;2023-04-20T08:14:22;4.43;;;1.30;;
71969;SDS011;59838;52.152;5.436;2023-04-20T08:16:49;2.77;;;1.30;;
71969;SDS011;59838;52.152;5.436;2023-04-20T08:19:15;2.35;;;1.20;;
71969;SDS011;59838;52.152;5.436;2023-04-20T08:21:42;2.10;;;0.98;;
71969;SDS011;59838;52.152;5.436;2023-04-20T08:24:08;2.33;;;1.05;;
71969;SDS011;59838;52.152;5.436;2023-04-20T08:26:35;4.43;;;1.58;;
71969;SDS011;59838;52.152;5.436;2023-04-20T08:29:02;3.53;;;1.83;;
71969;SDS011;59838;52.152;5.436;2023-04-20T08:31:30;2.78;;;1.67;;
71969;SDS011;59838;52.152;5.436;2023-04-20T08:33:57;1.88;;;1.33;;
71969;SDS011;59838;52.152;5.436;2023-04-20T08:36:24;5.80;;;1.52;;
71969;SDS011;59838;52.152;5.436;2023-04-20T08:38:55;4.68;;;1.75;;
71969;SDS011;59838;52.152;5.436;2023-04-20T08:41:30;4.40;;;1.20;;
71969;SDS011;59838;52.152;5.436;2023-04-20T08:43:57;5.18;;;1.92;;
71969;SDS011;59838;52.152;5.436;2023-04-20T08:46:23;2.97;;;1.17;;
71969;SDS011;59838;52.152;5.436;2023-04-20T08:48:50;3.00;;;1.25;;
71969;SDS011;59838;52.152;5.436;2023-04-20T08:51:18;2.45;;;0.95;;
71969;SDS011;59838;52.152;5.436;2023-04-20T08:53:45;3.90;;;1.40;;
71969;SDS011;59838;52.152;5.436;2023-04-20T08:56:11;2.95;;;1.70;;
71969;SDS011;59838;52.152;5.436;2023-04-20T08:58:38;4.13;;;1.85;;
71969;SDS011;59838;52.152;5.436;2023-04-20T09:01:09;3.05;;;1.55;;
71969;SDS011;59838;52.152;5.436;2023-04-20T09:03:40;4.32;;;2.20;;
71969;SDS011;59838;52.152;5.436;2023-04-20T09:06:14;6.03;;;2.40;;
71969;SDS011;59838;52.152;5.436;2023-04-20T09:08:43;2.75;;;1.75;;
71969;SDS011;59838;52.152;5.436;2023-04-20T09:11:21;4.28;;;1.80;;
71969;SDS011;59838;52.152;5.436;2023-04-20T09:14:05;4.70;;;1.50;;
71969;SDS011;59838;52.152;5.436;2023-04-20T09:16:35;4.53;;;2.53;;
71969;SDS011;59838;52.152;5.436;2023-04-20T09:19:02;3.37;;;1.70;;
71969;SDS011;59838;52.152;5.436;2023-04-20T09:21:29;6.43;;;1.98;;
71969;SDS011;59838;52.152;5.436;2023-04-20T09:24:01;4.95;;;2.10;;
71969;SDS011;59838;52.152;5.436;2023-04-20T09:26:32;4.53;;;1.65;;
71969;SDS011;59838;52.152;5.436;2023-04-20T09:29:00;4.72;;;2.20;;
71969;SDS011;59838;52.152;5.436;2023-04-20T09:31:28;3.57;;;1.77;;
71969;SDS011;59838;52.152;5.436;2023-04-20T09:33:57;3.47;;;1.58;;
71969;SDS011;59838;52.152;5.436;2023-04-20T09:36:37;7.18;;;2.20;;
71969;SDS011;59838;52.152;5.436;2023-04-20T09:39:07;5.22;;;2.00;;
71969;SDS011;59838;52.152;5.436;2023-04-20T09:41:35;3.47;;;2.03;;
71969;SDS011;59838;52.152;5.436;2023-04-20T09:44:04;5.93;;;1.47;;
71969;SDS011;59838;52.152;5.436;2023-04-20T09:46:32;4.38;;;2.00;;
71969;SDS011;59838;52.152;5.436;2023-04-20T09:49:04;2.85;;;1.65;;
71969;SDS011;59838;52.152;5.436;2023-04-20T09:51:34;3.85;;;1.60;;
71969;SDS011;59838;52.152;5.436;2023-04-20T09:54:02;4.65;;;2.10;;
71969;SDS011;59838;52.152;5.436;2023-04-20T09:56:31;5.27;;;2.27;;
71969;SDS011;59838;52.152;5.436;2023-04-20T09:58:58;3.75;;;2.22;;
71969;SDS011;59838;52.152;5.436;2023-04-20T10:01:27;4.03;;;2.05;;
71969;SDS011;59838;52.152;5.436;2023-04-20T10:03:56;4.38;;;1.80;;
71969;SDS011;59838;52.152;5.436;2023-04-20T10:06:26;4.15;;;1.38;;
71969;SDS011;59838;52.152;5.436;2023-04-20T10:08:57;4.50;;;1.93;;
71969;SDS011;59838;52.152;5.436;2023-04-20T10:14:21;4.63;;;1.90;;
71969;SDS011;59838;52.152;5.436;2023-04-20T10:16:59;4.25;;;1.65;;
71969;SDS011;59838;52.152;5.436;2023-04-20T10:22:06;3.33;;;1.77;;
71969;SDS011;59838;52.152;5.436;2023-04-20T10:24:34;3.88;;;1.77;;
71969;SDS011;59838;52.152;5.436;2023-04-20T10:27:03;5.43;;;2.28;;
71969;SDS011;59838;52.152;5.436;2023-04-20T10:29:41;2.78;;;1.77;;
71969;SDS011;59838;52.152;5.436;2023-04-20T10:32:07;4.35;;;2.10;;
71969;SDS011;59838;52.152;5.436;2023-04-20T10:34:34;2.50;;;1.60;;
71969;SDS011;59838;52.152;5.436;2023-04-20T10:37:08;4.40;;;1.67;;
71969;SDS011;59838;52.152;5.436;2023-04-20T10:39:36;5.10;;;2.17;;
71969;SDS011;59838;52.152;5.436;2023-04-20T10:42:09;5.28;;;2.10;;
71969;SDS011;59838;52.152;5.436;2023-04-20T10:44:46;2.50;;;2.10;;
71969;SDS011;59838;52.152;5.436;2023-04-20T10:47:16;4.10;;;1.93;;
71969;SDS011;59838;52.152;5.436;2023-04-20T10:49:51;3.53;;;2.05;;
71969;SDS011;59838;52.152;5.436;2023-04-20T10:52:30;3.08;;;2.25;;
71969;SDS011;59838;52.152;5.436;2023-04-20T10:54:57;7.15;;;1.92;;
71969;SDS011;59838;52.152;5.436;2023-04-20T10:57:24;3.75;;;2.10;;
71969;SDS011;59838;52.152;5.436;2023-04-20T10:59:50;3.60;;;2.57;;
71969;SDS011;59838;52.152;5.436;2023-04-20T11:02:17;7.55;;;2.22;;
71969;SDS011;59838;52.152;5.436;2023-04-20T11:04:43;5.13;;;2.20;;
71969;SDS011;59838;52.152;5.436;2023-04-20T11:07:10;6.35;;;1.90;;
71969;SDS011;59838;52.152;5.436;2023-04-20T11:09:38;3.30;;;1.50;;
71969;SDS011;59838;52.152;5.436;2023-04-20T11:12:06;4.17;;;1.80;;
71969;SDS011;59838;52.152;5.436;2023-04-20T11:14:38;4.30;;;1.67;;
71969;SDS011;59838;52.152;5.436;2023-04-20T11:17:15;3.17;;;1.85;;
71969;SDS011;59838;52.152;5.436;2023-04-20T11:19:42;4.53;;;1.60;;
71969;SDS011;59838;52.152;5.436;2023-04-20T11:22:09;3.25;;;1.48;;
71969;SDS011;59838;52.152;5.436;2023-04-20T11:24:46;2.50;;;1.27;;
71969;SDS011;59838;52.152;5.436;2023-04-20T11:27:19;4.32;;;1.50;;
71969;SDS011;59838;52.152;5.436;2023-04-20T11:29:54;2.40;;;1.42;;
71969;SDS011;59838;52.152;5.436;2023-04-20T11:32:22;3.47;;;1.80;;
71969;SDS011;59838;52.152;5.436;2023-04-20T11:34:56;5.20;;;1.67;;
71969;SDS011;59838;52.152;5.436;2023-04-20T11:37:32;2.73;;;1.20;;
71969;SDS011;59838;52.152;5.436;2023-04-20T11:40:05;2.00;;;1.42;;
71969;SDS011;59838;52.152;5.436;2023-04-20T11:42:36;3.80;;;1.48;;
71969;SDS011;59838;52.152;5.436;2023-04-20T11:45:05;2.28;;;1.50;;
71969;SDS011;59838;52.152;5.436;2023-04-20T11:47:32;4.07;;;1.73;;
71969;SDS011;59838;52.152;5.436;2023-04-20T11:49:58;2.90;;;1.60;;
71969;SDS011;59838;52.152;5.436;2023-04-20T11:52:24;2.33;;;1.65;;
71969;SDS011;59838;52.152;5.436;2023-04-20T11:54:51;2.63;;;1.65;;
71969;SDS011;59838;52.152;5.436;2023-04-20T11:57:17;3.20;;;1.38;;
71969;SDS011;59838;52.152;5.436;2023-04-20T11:59:46;2.42;;;1.50;;
71969;SDS011;59838;52.152;5.436;2023-04-20T12:02:14;3.13;;;1.40;;
71969;SDS011;59838;52.152;5.436;2023-04-20T12:04:41;4.78;;;1.60;;
71969;SDS011;59838;52.152;5.436;2023-04-20T12:07:08;3.08;;;1.73;;
71969;SDS011;59838;52.152;5.436;2023-04-20T12:09:34;2.28;;;1.83;;
71969;SDS011;59838;52.152;5.436;2023-04-20T12:12:03;2.85;;;1.77;;
71969;SDS011;59838;52.152;5.436;2023-04-20T12:14:31;3.17;;;1.80;;
71969;SDS011;59838;52.152;5.436;2023-04-20T12:17:02;3.15;;;1.35;;
71969;SDS011;59838;52.152;5.436;2023-04-20T12:19:30;3.55;;;1.95;;
71969;SDS011;59838;52.152;5.436;2023-04-20T12:21:57;3.35;;;1.67;;
71969;SDS011;59838;52.152;5.436;2023-04-20T12:24:24;2.13;;;1.40;;
71969;SDS011;59838;52.152;5.436;2023-04-20T12:26:50;4.37;;;1.70;;
71969;SDS011;59838;52.152;5.436;2023-04-20T12:29:17;3.22;;;1.35;;
71969;SDS011;59838;52.152;5.436;2023-04-20T12:31:44;3.38;;;1.65;;
71969;SDS011;59838;52.152;5.436;2023-04-20T12:34:10;2.60;;;1.35;;
71969;SDS011;59838;52.152;5.436;2023-04-20T12:36:37;2.40;;;1.38;;
71969;SDS011;59838;52.152;5.436;2023-04-20T12:39:05;2.43;;;1.50;;
71969;SDS011;59838;52.152;5.436;2023-04-20T12:41:31;3.40;;;2.17;;
71969;SDS011;59838;52.152;5.436;2023-04-20T12:43:59;4.60;;;1.60;;
71969;SDS011;59838;52.152;5.436;2023-04-20T12:46:30;4.00;;;1.83;;
71969;SDS011;59838;52.152;5.436;2023-04-20T12:48:57;3.58;;;2.00;;
71969;SDS011;59838;52.152;5.436;2023-04-20T12:51:23;4.50;;;1.40;;
71969;SDS011;59838;52.152;5.436;2023-04-20T12:53:50;3.08;;;1.70;;
71969;SDS011;59838;52.152;5.436;2023-04-20T12:56:16;4.13;;;2.03;;
71969;SDS011;59838;52.152;5.436;2023-04-20T12:58:43;5.15;;;2.25;;
71969;SDS011;59838;52.152;5.436;2023-04-20T13:01:09;3.50;;;1.92;;
71969;SDS011;59838;52.152;5.436;2023-04-20T13:03:36;7.80;;;1.67;;
71969;SDS011;59838;52.152;5.436;2023-04-20T13:06:03;4.45;;;2.10;;
71969;SDS011;59838;52.152;5.436;2023-04-20T13:08:30;4.13;;;2.40;;
71969;SDS011;59838;52.152;5.436;2023-04-20T13:10:56;5.03;;;1.92;;
71969;SDS011;59838;52.152;5.436;2023-04-20T13:13:23;2.95;;;1.88;;
71969;SDS011;59838;52.152;5.436;2023-04-20T13:15:51;3.20;;;2.20;;
71969;SDS011;59838;52.152;5.436;2023-04-20T13:18:19;3.65;;;2.35;;
71969;SDS011;59838;52.152;5.436;2023-04-20T13:20:47;3.05;;;2.15;;
71969;SDS011;59838;52.152;5.436;2023-04-20T13:23:13;5.55;;;2.78;;
71969;SDS011;59838;52.152;5.436;2023-04-20T13:25:40;4.30;;;1.83;;
71969;SDS011;59838;52.152;5.436;2023-04-20T13:28:07;2.73;;;1.93;;
71969;SDS011;59838;52.152;5.436;2023-04-20T13:30:33;4.18;;;2.08;;
71969;SDS011;59838;52.152;5.436;2023-04-20T13:33:00;3.97;;;2.28;;
71969;SDS011;59838;52.152;5.436;2023-04-20T13:35:26;4.03;;;2.33;;
71969;SDS011;59838;52.152;5.436;2023-04-20T13:37:53;4.68;;;2.25;;
71969;SDS011;59838;52.152;5.436;2023-04-20T13:40:19;5.03;;;2.30;;
71969;SDS011;59838;52.152;5.436;2023-04-20T13:42:46;4.38;;;2.08;;
71969;SDS011;59838;52.152;5.436;2023-04-20T13:45:12;4.93;;;2.75;;
71969;SDS011;59838;52.152;5.436;2023-04-20T13:47:39;4.68;;;2.45;;
71969;SDS011;59838;52.152;5.436;2023-04-20T13:50:07;4.38;;;2.30;;
71969;SDS011;59838;52.152;5.436;2023-04-20T13:52:34;3.13;;;2.03;;
71969;SDS011;59838;52.152;5.436;2023-04-20T13:55:01;5.85;;;2.42;;
71969;SDS011;59838;52.152;5.436;2023-04-20T13:57:28;3.90;;;2.40;;
71969;SDS011;59838;52.152;5.436;2023-04-20T13:59:56;6.60;;;2.13;;
71969;SDS011;59838;52.152;5.436;2023-04-20T14:02:24;2.65;;;1.90;;
71969;SDS011;59838;52.152;5.436;2023-04-20T14:04:50;3.63;;;2.03;;
71969;SDS011;59838;52.152;5.436;2023-04-20T14:07:17;3.08;;;1.73;;
71969;SDS011;59838;52.152;5.436;2023-04-20T14:09:44;3.67;;;2.22;;
71969;SDS011;59838;52.152;5.436;2023-04-20T14:12:12;5.93;;;3.00;;
71969;SDS011;59838;52.152;5.436;2023-04-20T14:14:39;3.33;;;2.13;;
71969;SDS011;59838;52.152;5.436;2023-04-20T14:17:06;4.20;;;2.50;;
71969;SDS011;59838;52.152;5.436;2023-04-20T14:19:32;4.07;;;2.10;;
71969;SDS011;59838;52.152;5.436;2023-04-20T14:21:58;3.75;;;2.28;;
71969;SDS011;59838;52.152;5.436;2023-04-20T14:24:25;3.60;;;2.45;;
71969;SDS011;59838;52.152;5.436;2023-04-20T14:26:51;3.97;;;2.28;;
71969;SDS011;59838;52.152;5.436;2023-04-20T14:29:19;3.27;;;2.23;;
71969;SDS011;59838;52.152;5.436;2023-04-20T14:31:46;5.18;;;2.72;;
71969;SDS011;59838;52.152;5.436;2023-04-20T14:34:12;5.10;;;3.00;;
71969;SDS011;59838;52.152;5.436;2023-04-20T14:36:40;5.90;;;2.90;;
71969;SDS011;59838;52.152;5.436;2023-04-20T14:39:07;4.35;;;2.55;;
71969;SDS011;59838;52.152;5.436;2023-04-20T14:41:33;5.70;;;2.97;;
71969;SDS011;59838;52.152;5.436;2023-04-20T14:44:00;3.63;;;2.78;;
71969;SDS011;59838;52.152;5.436;2023-04-20T14:46:27;4.53;;;2.72;;
71969;SDS011;59838;52.152;5.436;2023-04-20T14:48:53;3.67;;;2.38;;
71969;SDS011;59838;52.152;5.436;2023-04-20T14:51:20;3.38;;;3.03;;
71969;SDS011;59838;52.152;5.436;2023-04-20T14:53:47;10.10;;;3.20;;
71969;SDS011;59838;52.152;5.436;2023-04-20T14:56:13;3.38;;;2.47;;